Time,TemperatureF,DewpointF,PressureIn,WindDirection,WindDirectionDegrees,WindSpeedMPH,WindSpeedGustMPH,Humidity,HourlyPrecipIn,Conditions,Clouds,dailyrainin,SoftwareType,DateUTC
2013-07-09 00:00:00,70.4,65.5,29.98,North,359,0.0,0.0,85,0.00,,---,0.00,VWS V14.01,2013-07-09 04:00:00,
2013-07-09 00:01:00,69.7,64.6,29.98,WNW,287,0.0,0.0,84,0.00,,---,0.00,VWS V14.01,2013-07-09 04:01:00,
2013-07-09 00:06:00,70.8,65.5,29.99,West,276,0.0,0.0,83,0.00,,---,0.00,VWS V14.01,2013-07-09 04:06:00,
2013-07-09 00:11:00,70.8,65.5,29.98,West,276,0.0,0.0,83,0.00,,---,0.00,VWS V14.01,2013-07-09 04:11:00,
2013-07-09 00:13:00,67.8,66.5,29.98,North,359,0.0,15.9,96,0.00,,---,0.00,VWS V14.01,2013-07-09 04:13:00,
2013-07-09 00:16:00,69.8,64.7,29.98,North,359,0.0,0.0,84,0.00,,---,0.00,VWS V14.01,2013-07-09 04:16:00,
2013-07-09 00:21:00,70.6,65.6,29.98,North,359,0.0,0.2,84,0.00,,---,0.00,VWS V14.01,2013-07-09 04:21:00,
2013-07-09 00:26:00,70.9,66.0,29.98,NW,325,3.0,4.3,84,0.00,,---,0.00,VWS V14.01,2013-07-09 04:26:00,
2013-07-09 00:31:00,70.2,65.3,29.98,WSW,245,0.7,0.9,84,0.00,,---,0.00,VWS V14.01,2013-07-09 04:31:00,
2013-07-09 00:36:00,71.0,66.1,29.98,North,359,0.0,6.4,84,0.00,,---,0.00,VWS V14.01,2013-07-09 04:36:00,
2013-07-09 00:41:00,69.9,65.0,29.98,North,359,0.0,0.0,84,0.00,,---,0.00,VWS V14.01,2013-07-09 04:41:00,
2013-07-09 00:44:00,77.5,66.7,29.97,SW,224,2.4,4.5,69,0.00,,---,0.00,VWS V14.01,2013-07-09 04:44:00,
2013-07-09 00:46:00,70.4,65.6,29.98,North,359,0.0,0.0,85,0.00,,---,0.00,VWS V14.01,2013-07-09 04:46:00,
2013-07-09 00:51:00,69.1,64.5,29.98,North,359,0.0,0.0,85,0.00,,---,0.00,VWS V14.01,2013-07-09 04:51:00,
2013-07-09 00:56:00,70.3,65.7,29.98,North,359,0.0,0.0,85,0.00,,---,0.00,VWS V14.01,2013-07-09 04:56:00,
2013-07-09 01:01:00,69.3,64.8,29.99,SW,225,0.0,0.0,86,0.00,,---,0.00,VWS V14.01,2013-07-09 05:01:00,
2013-07-09 01:06:00,69.6,65.2,29.99,SW,225,0.0,0.0,86,73.71,,---,0.00,VWS V14.01,2013-07-09 05:06:00,
2013-07-09 01:11:00,69.9,65.5,29.99,SW,225,0.0,0.0,86,0.00,,---,0.00,VWS V14.01,2013-07-09 05:11:00,
2013-07-09 01:16:00,70.1,65.8,29.99,West,266,1.5,7.2,86,0.00,,---,0.00,VWS V14.01,2013-07-09 05:16:00,
2013-07-09 01:21:00,69.6,65.4,29.99,West,266,0.0,7.2,87,0.00,,---,0.00,VWS V14.01,2013-07-09 05:21:00,
2013-07-09 01:26:00,69.9,65.9,29.99,West,266,0.0,7.2,87,0.00,,---,0.00,VWS V14.01,2013-07-09 05:26:00,
2013-07-09 01:31:00,68.7,64.9,29.99,West,266,0.0,7.2,88,0.00,,---,0.00,VWS V14.01,2013-07-09 05:31:00,
2013-07-09 01:35:00,69.0,65.3,29.99,West,266,0.0,7.2,88,0.00,,---,0.00,VWS V14.01,2013-07-09 05:35:00,
2013-07-09 01:40:00,69.7,66.1,29.99,West,266,0.0,7.2,88,0.00,,---,0.00,VWS V14.01,2013-07-09 05:40:00,
2013-07-09 01:45:00,69.8,66.2,29.99,West,266,0.0,7.2,88,0.00,,---,0.00,VWS V14.01,2013-07-09 05:45:00,
2013-07-09 01:50:00,69.1,65.7,29.99,West,266,0.0,7.2,89,0.00,,---,0.00,VWS V14.01,2013-07-09 05:50:00,
2013-07-09 01:55:00,68.4,65.1,29.99,West,266,0.0,7.2,89,0.00,,---,0.00,VWS V14.01,2013-07-09 05:55:00,
2013-07-09 02:00:00,69.2,66.1,29.99,West,266,0.0,15.9,90,0.00,,---,0.00,VWS V14.01,2013-07-09 06:00:00,
2013-07-09 02:05:00,68.5,65.6,29.99,North,359,0.0,15.9,90,0.00,,---,0.00,VWS V14.01,2013-07-09 06:05:00,
2013-07-09 02:10:00,69.0,66.2,29.99,North,359,0.0,15.9,91,0.00,,---,0.00,VWS V14.01,2013-07-09 06:10:00,
2013-07-09 02:15:00,68.5,65.8,29.99,NNE,15,0.3,15.9,91,0.00,,---,0.00,VWS V14.01,2013-07-09 06:15:00,
2013-07-09 02:20:00,68.1,65.5,29.99,NNE,15,0.0,15.9,92,0.00,,---,0.00,VWS V14.01,2013-07-09 06:20:00,
2013-07-09 02:25:00,68.1,65.7,29.98,NW,322,0.0,15.9,92,0.00,,---,0.00,VWS V14.01,2013-07-09 06:25:00,
2013-07-09 02:30:00,68.4,66.0,29.98,NW,322,0.0,15.9,92,0.00,,---,0.00,VWS V14.01,2013-07-09 06:30:00,
2013-07-09 02:35:00,67.4,65.2,29.98,SW,229,1.5,15.9,92,0.00,,---,0.00,VWS V14.01,2013-07-09 06:35:00,
2013-07-09 02:40:00,68.5,66.4,29.98,North,0,2.2,15.9,93,0.00,,---,0.00,VWS V14.01,2013-07-09 06:40:00,
2013-07-09 02:45:00,67.7,65.8,29.98,North,359,0.0,15.9,94,0.00,,---,0.00,VWS V14.01,2013-07-09 06:45:00,
2013-07-09 02:50:00,67.9,66.1,29.98,SW,231,0.0,15.9,94,0.00,,---,0.00,VWS V14.01,2013-07-09 06:50:00,
2013-07-09 02:55:00,68.2,66.6,29.98,SW,231,0.0,15.9,95,0.00,,---,0.00,VWS V14.01,2013-07-09 06:55:00,
2013-07-09 03:00:00,68.9,67.4,29.98,SW,231,0.0,15.9,95,73.87,,---,0.00,VWS V14.01,2013-07-09 07:00:00,
2013-07-09 03:05:00,67.4,65.9,29.98,SW,231,0.0,15.9,95,0.00,,---,0.00,VWS V14.01,2013-07-09 07:05:00,
2013-07-09 03:10:00,68.1,66.7,29.97,North,359,0.0,15.9,95,0.00,,---,0.00,VWS V14.01,2013-07-09 07:10:00,
2013-07-09 03:15:00,67.9,66.5,29.98,North,359,0.0,15.9,95,0.00,,---,0.00,VWS V14.01,2013-07-09 07:15:00,
2013-07-09 03:20:00,68.1,66.7,29.98,North,359,0.0,15.9,95,0.00,,---,0.00,VWS V14.01,2013-07-09 07:20:00,
2013-07-09 03:25:00,67.2,65.8,29.98,North,359,0.0,15.9,95,0.00,,---,0.00,VWS V14.01,2013-07-09 07:25:00,
2013-07-09 03:30:00,66.7,65.3,29.98,North,359,0.0,15.9,95,73.07,,---,0.00,VWS V14.01,2013-07-09 07:30:00,
2013-07-09 03:35:00,67.8,66.4,29.98,North,359,0.0,15.9,95,0.00,,---,0.00,VWS V14.01,2013-07-09 07:35:00,
2013-07-09 03:40:00,66.8,65.5,29.98,North,359,0.0,15.9,96,0.00,,---,0.00,VWS V14.01,2013-07-09 07:40:00,
2013-07-09 03:45:00,68.1,66.8,29.98,North,359,0.0,15.9,96,0.00,,---,0.00,VWS V14.01,2013-07-09 07:45:00,
2013-07-09 03:52:00,68.3,67.0,29.98,North,359,0.0,15.9,96,0.00,,---,0.00,VWS V14.01,2013-07-09 07:52:00,
2013-07-09 03:57:00,67.5,66.2,29.98,North,359,0.0,15.9,96,0.00,,---,0.00,VWS V14.01,2013-07-09 07:57:00,
2013-07-09 04:02:00,67.4,66.1,29.98,North,359,0.0,15.9,96,0.00,,---,0.00,VWS V14.01,2013-07-09 08:02:00,
2013-07-09 04:07:00,67.2,65.9,29.98,North,359,0.0,15.9,96,0.00,,---,0.00,VWS V14.01,2013-07-09 08:07:00,
2013-07-09 04:12:00,68.2,66.9,29.98,North,359,0.0,15.9,96,0.00,,---,0.00,VWS V14.01,2013-07-09 08:12:00,
2013-07-09 04:17:00,67.7,66.4,29.98,North,359,0.0,15.9,96,0.00,,---,0.00,VWS V14.01,2013-07-09 08:17:00,
2013-07-09 04:22:00,67.9,66.6,29.98,North,359,0.0,15.9,96,0.00,,---,0.00,VWS V14.01,2013-07-09 08:22:00,
2013-07-09 04:27:00,68.1,66.9,29.98,North,359,0.0,15.9,96,0.00,,---,0.00,VWS V14.01,2013-07-09 08:27:00,
2013-07-09 04:32:00,67.2,66.0,29.98,North,359,0.0,15.9,96,0.00,,---,0.00,VWS V14.01,2013-07-09 08:32:00,
2013-07-09 04:37:00,67.4,66.2,29.98,North,359,0.0,15.9,96,0.00,,---,0.00,VWS V14.01,2013-07-09 08:37:00,
2013-07-09 04:42:00,68.0,66.9,29.98,North,359,0.0,15.9,96,0.00,,---,0.00,VWS V14.01,2013-07-09 08:42:00,
2013-07-09 04:47:00,68.3,67.2,29.98,North,359,0.0,15.9,96,0.00,,---,0.00,VWS V14.01,2013-07-09 08:47:00,
2013-07-09 04:52:00,67.8,66.7,29.98,North,359,0.0,15.9,96,0.00,,---,0.00,VWS V14.01,2013-07-09 08:52:00,
2013-07-09 04:57:00,68.2,67.2,29.98,North,359,0.0,15.9,96,0.00,,---,0.00,VWS V14.01,2013-07-09 08:57:00,
2013-07-09 05:02:00,68.4,67.4,29.98,North,359,0.0,15.9,96,0.00,,---,0.00,VWS V14.01,2013-07-09 09:02:00,
2013-07-09 05:07:00,68.3,67.4,29.98,North,359,0.0,15.9,97,0.00,,---,0.00,VWS V14.01,2013-07-09 09:07:00,
2013-07-09 05:12:00,68.3,67.3,29.98,North,359,0.0,15.9,97,0.00,,---,0.00,VWS V14.01,2013-07-09 09:12:00,
2013-07-09 05:17:00,67.6,66.7,29.98,North,359,0.0,15.9,97,0.00,,---,0.00,VWS V14.01,2013-07-09 09:17:00,
2013-07-09 05:22:00,68.1,67.2,29.99,North,359,0.0,15.9,97,0.00,,---,0.00,VWS V14.01,2013-07-09 09:22:00,
2013-07-09 05:27:00,68.2,67.2,29.99,North,359,0.0,15.9,97,0.00,,---,0.00,VWS V14.01,2013-07-09 09:27:00,
2013-07-09 05:32:00,67.8,66.9,29.99,North,359,0.0,15.9,97,0.00,,---,0.00,VWS V14.01,2013-07-09 09:32:00,
2013-07-09 05:37:00,67.1,66.2,29.99,North,359,0.0,15.9,97,0.00,,---,0.00,VWS V14.01,2013-07-09 09:37:00,
2013-07-09 05:42:00,69.0,68.1,29.99,North,359,0.0,15.9,97,0.00,,---,0.00,VWS V14.01,2013-07-09 09:42:00,
2013-07-09 05:47:00,68.7,67.8,30.00,North,359,0.0,15.9,97,0.00,,---,0.00,VWS V14.01,2013-07-09 09:47:00,
2013-07-09 05:52:00,68.6,67.7,29.99,North,359,0.0,15.9,97,0.00,,---,0.00,VWS V14.01,2013-07-09 09:52:00,
2013-07-09 05:57:00,68.4,67.5,30.00,North,359,0.0,15.9,97,0.00,,---,0.00,VWS V14.01,2013-07-09 09:57:00,
2013-07-09 06:02:00,67.5,66.7,30.00,North,359,0.0,15.9,97,0.00,,---,0.00,VWS V14.01,2013-07-09 10:02:00,
2013-07-09 06:07:00,68.8,67.9,30.00,North,359,0.0,15.9,97,0.00,,---,0.00,VWS V14.01,2013-07-09 10:07:00,
2013-07-09 06:12:00,67.7,66.9,30.00,North,359,0.0,15.9,97,0.00,,---,0.00,VWS V14.01,2013-07-09 10:12:00,
2013-07-09 06:17:00,67.5,66.7,30.00,North,359,0.0,15.9,97,0.00,,---,0.00,VWS V14.01,2013-07-09 10:17:00,
2013-07-09 06:22:00,68.5,67.7,30.00,North,359,0.0,15.9,97,0.00,,---,0.00,VWS V14.01,2013-07-09 10:22:00,
2013-07-09 06:27:00,68.5,67.7,30.00,North,359,0.0,15.9,97,0.00,,---,0.00,VWS V14.01,2013-07-09 10:27:00,
2013-07-09 06:32:00,68.6,67.8,30.00,North,359,0.0,15.9,97,0.00,,---,0.00,VWS V14.01,2013-07-09 10:32:00,
2013-07-09 06:37:00,68.8,68.1,30.00,North,359,0.0,15.9,98,0.00,,---,0.00,VWS V14.01,2013-07-09 10:37:00,
2013-07-09 06:42:00,68.1,67.4,30.00,North,359,0.0,15.9,98,0.00,,---,0.00,VWS V14.01,2013-07-09 10:42:00,
2013-07-09 06:47:00,68.6,67.8,30.00,West,269,2.4,15.9,97,0.00,,---,0.00,VWS V14.01,2013-07-09 10:47:00,
2013-07-09 06:52:00,68.6,67.8,30.00,NNE,15,0.0,15.9,97,0.00,,---,0.00,VWS V14.01,2013-07-09 10:52:00,
2013-07-09 06:57:00,69.4,68.5,30.00,West,270,1.0,15.9,97,0.00,,---,0.00,VWS V14.01,2013-07-09 10:57:00,
2013-07-09 07:02:00,70.2,69.2,30.00,NNE,31,0.9,15.9,97,0.00,,---,0.00,VWS V14.01,2013-07-09 11:02:00,
2013-07-09 07:07:00,70.4,69.4,30.00,NW,307,1.6,15.9,97,0.00,,---,0.00,VWS V14.01,2013-07-09 11:07:00,
2013-07-09 07:12:00,71.0,69.9,30.00,SSW,210,0.6,15.9,96,0.00,,---,0.00,VWS V14.01,2013-07-09 11:12:00,
2013-07-09 07:17:00,70.4,69.2,30.00,SW,229,2.0,15.9,96,0.00,,---,0.00,VWS V14.01,2013-07-09 11:17:00,
2013-07-09 07:22:00,70.6,69.3,30.00,WNW,283,2.9,15.9,96,0.00,,---,0.00,VWS V14.01,2013-07-09 11:22:00,
2013-07-09 07:27:00,71.4,70.0,30.00,SW,225,2.0,15.9,95,0.00,,---,0.00,VWS V14.01,2013-07-09 11:27:00,
2013-07-09 07:32:00,72.3,70.8,30.00,NW,308,0.7,15.9,95,0.00,,---,0.00,VWS V14.01,2013-07-09 11:32:00,
2013-07-09 07:37:00,72.9,71.0,30.01,NW,307,3.7,15.9,94,0.00,,---,0.00,VWS V14.01,2013-07-09 11:37:00,
2013-07-09 07:42:00,72.5,69.9,30.00,West,264,3.9,15.9,92,0.00,,---,0.00,VWS V14.01,2013-07-09 11:42:00,
2013-07-09 07:47:00,73.4,70.6,30.00,SW,225,2.1,15.9,91,0.00,,---,0.00,VWS V14.01,2013-07-09 11:47:00,
2013-07-09 07:52:00,73.0,69.8,30.00,WSW,240,3.9,15.9,90,0.00,,---,0.00,VWS V14.01,2013-07-09 11:52:00,
2013-07-09 07:57:00,73.4,70.0,30.00,West,278,2.7,15.9,89,0.00,,---,0.00,VWS V14.01,2013-07-09 11:57:00,
2013-07-09 08:02:00,73.8,69.6,30.00,North,359,0.0,15.9,87,0.00,,---,0.00,VWS V14.01,2013-07-09 12:02:00,
2013-07-09 08:07:00,74.0,69.2,30.01,North,359,0.2,15.9,85,0.00,,---,0.00,VWS V14.01,2013-07-09 12:07:00,
2013-07-09 08:12:00,74.5,69.6,30.01,North,354,0.9,15.9,85,0.00,,---,0.00,VWS V14.01,2013-07-09 12:12:00,
2013-07-09 08:17:00,74.6,69.3,30.01,North,354,0.0,15.9,84,0.00,,---,0.00,VWS V14.01,2013-07-09 12:17:00,
2013-07-09 08:22:00,76.2,70.4,30.01,North,359,0.0,15.9,82,0.00,,---,0.00,VWS V14.01,2013-07-09 12:22:00,
2013-07-09 08:27:00,76.2,69.8,30.01,NE,39,1.1,15.9,81,0.00,,---,0.00,VWS V14.01,2013-07-09 12:27:00,
2013-07-09 08:32:00,75.3,68.8,30.01,NNW,346,0.8,15.9,80,0.00,,---,0.00,VWS V14.01,2013-07-09 12:32:00,
2013-07-09 08:37:00,75.4,68.4,30.01,SE,142,3.1,15.9,79,0.00,,---,0.00,VWS V14.01,2013-07-09 12:37:00,
2013-07-09 08:42:00,75.9,68.8,30.00,NNW,347,2.3,15.9,79,0.00,,---,0.00,VWS V14.01,2013-07-09 12:42:00,
2013-07-09 08:47:00,75.2,67.8,30.00,NW,325,2.2,15.9,78,0.00,,---,0.00,VWS V14.01,2013-07-09 12:47:00,
2013-07-09 08:52:00,75.7,67.5,30.01,WNW,295,5.8,15.9,76,0.00,,---,0.00,VWS V14.01,2013-07-09 12:52:00,
2013-07-09 08:57:00,76.1,67.9,30.00,WSW,242,5.4,15.9,76,0.00,,---,0.00,VWS V14.01,2013-07-09 12:57:00,
2013-07-09 09:02:00,76.1,68.1,30.00,WSW,257,0.6,15.9,76,0.00,,---,0.00,VWS V14.01,2013-07-09 13:02:00,
2013-07-09 09:07:00,77.7,69.4,30.00,SW,225,3.5,15.9,76,0.00,,---,0.00,VWS V14.01,2013-07-09 13:07:00,
2013-07-09 09:12:00,76.8,68.1,30.00,West,266,4.3,15.9,74,0.00,,---,0.00,VWS V14.01,2013-07-09 13:12:00,
2013-07-09 09:17:00,76.4,68.2,30.00,West,277,1.9,15.9,76,0.00,,---,0.00,VWS V14.01,2013-07-09 13:17:00,
2013-07-09 09:22:00,76.2,67.8,30.00,West,263,0.0,15.9,75,0.00,,---,0.00,VWS V14.01,2013-07-09 13:22:00,
2013-07-09 09:27:00,76.8,67.5,30.00,SE,131,3.0,15.9,73,0.00,,---,0.00,VWS V14.01,2013-07-09 13:27:00,
2013-07-09 09:32:00,76.5,67.1,30.00,West,273,3.2,15.9,73,0.00,,---,0.00,VWS V14.01,2013-07-09 13:32:00,
2013-07-09 09:37:00,77.7,67.3,30.00,NNE,15,3.5,15.9,70,0.00,,---,0.00,VWS V14.01,2013-07-09 13:37:00,
2013-07-09 09:42:00,77.4,67.1,30.00,NNW,336,1.4,15.9,71,0.00,,---,0.00,VWS V14.01,2013-07-09 13:42:00,
2013-07-09 09:47:00,77.8,67.4,30.00,NW,315,2.8,15.9,70,0.00,,---,0.00,VWS V14.01,2013-07-09 13:47:00,
2013-07-09 09:52:00,78.0,66.7,30.00,NW,316,3.7,15.9,68,0.00,,---,0.00,VWS V14.01,2013-07-09 13:52:00,
2013-07-09 09:57:00,78.7,67.7,30.00,SE,124,1.3,15.9,69,0.00,,---,0.00,VWS V14.01,2013-07-09 13:57:00,
2013-07-09 10:01:00,78.2,66.8,30.00,WSW,257,5.6,15.9,68,0.00,,---,0.00,VWS V14.01,2013-07-09 14:01:00,
2013-07-09 10:06:00,80.0,67.4,30.00,WSW,245,5.5,15.9,66,0.00,,---,0.00,VWS V14.01,2013-07-09 14:06:00,
2013-07-09 10:11:00,79.7,67.3,30.00,South,172,0.0,15.9,66,0.00,,---,0.00,VWS V14.01,2013-07-09 14:11:00,
2013-07-09 10:16:00,79.8,66.9,30.00,South,172,0.0,15.9,65,0.00,,---,0.00,VWS V14.01,2013-07-09 14:16:00,
2013-07-09 10:21:00,79.9,67.4,30.00,South,172,0.0,15.9,66,0.00,,---,0.00,VWS V14.01,2013-07-09 14:21:00,
2013-07-09 10:26:00,80.1,66.2,30.00,South,172,0.0,15.9,62,0.00,,---,0.00,VWS V14.01,2013-07-09 14:26:00,
2013-07-09 10:31:00,79.2,65.3,30.00,South,172,0.0,15.9,63,0.00,,---,0.00,VWS V14.01,2013-07-09 14:31:00,
2013-07-09 10:36:00,79.7,65.8,30.00,South,172,0.0,15.9,63,0.00,,---,0.00,VWS V14.01,2013-07-09 14:36:00,
2013-07-09 10:41:00,80.5,65.9,30.00,South,172,0.0,15.9,61,0.00,,---,0.00,VWS V14.01,2013-07-09 14:41:00,
2013-07-09 10:46:00,80.3,65.9,30.00,South,172,0.0,15.9,62,0.00,,---,0.00,VWS V14.01,2013-07-09 14:46:00,
2013-07-09 10:51:00,80.5,65.5,30.00,South,172,0.0,15.9,60,0.00,,---,0.00,VWS V14.01,2013-07-09 14:51:00,
2013-07-09 10:56:00,80.5,65.1,30.00,South,172,0.0,15.9,60,0.00,,---,0.00,VWS V14.01,2013-07-09 14:56:00,
2013-07-09 11:01:00,81.9,67.0,30.00,South,172,0.0,15.9,61,0.00,,---,0.00,VWS V14.01,2013-07-09 15:01:00,
2013-07-09 11:06:00,80.6,64.8,30.00,South,172,0.0,15.9,59,0.00,,---,0.00,VWS V14.01,2013-07-09 15:06:00,
2013-07-09 11:11:00,80.8,64.2,30.00,South,172,0.0,15.9,57,0.00,,---,0.00,VWS V14.01,2013-07-09 15:11:00,
2013-07-09 11:16:00,82.0,66.1,30.00,South,172,0.0,15.9,59,0.00,,---,0.00,VWS V14.01,2013-07-09 15:16:00,
2013-07-09 11:21:00,81.2,65.8,30.00,South,172,0.0,15.9,60,0.00,,---,0.00,VWS V14.01,2013-07-09 15:21:00,
2013-07-09 11:26:00,82.0,66.2,30.00,South,172,0.0,15.9,59,0.00,,---,0.00,VWS V14.01,2013-07-09 15:26:00,
2013-07-09 11:31:00,81.5,66.8,29.99,South,172,0.0,15.9,61,0.00,,---,0.00,VWS V14.01,2013-07-09 15:31:00,
2013-07-09 11:36:00,82.1,67.4,29.99,South,172,0.0,15.9,61,0.00,,---,0.00,VWS V14.01,2013-07-09 15:36:00,
2013-07-09 11:41:00,80.7,64.9,29.99,South,172,0.0,15.9,59,0.00,,---,0.00,VWS V14.01,2013-07-09 15:41:00,
2013-07-09 11:46:00,81.4,64.9,29.99,South,172,0.0,15.9,57,0.00,,---,0.00,VWS V14.01,2013-07-09 15:46:00,
2013-07-09 11:51:00,81.0,64.4,29.99,South,172,0.0,15.9,57,0.00,,---,0.00,VWS V14.01,2013-07-09 15:51:00,
2013-07-09 11:56:00,81.3,64.7,29.99,South,172,0.0,15.9,57,0.00,,---,0.00,VWS V14.01,2013-07-09 15:56:00,
2013-07-09 12:01:00,82.0,66.4,29.99,South,172,0.0,15.9,59,0.00,,---,0.00,VWS V14.01,2013-07-09 16:01:00,
2013-07-09 12:06:00,81.4,65.8,29.99,South,172,0.0,15.9,59,0.00,,---,0.00,VWS V14.01,2013-07-09 16:06:00,
2013-07-09 12:11:00,81.8,65.4,29.99,South,172,0.0,15.9,58,0.00,,---,0.00,VWS V14.01,2013-07-09 16:11:00,
2013-07-09 12:16:00,82.0,64.9,29.99,South,172,0.0,15.9,56,0.00,,---,0.00,VWS V14.01,2013-07-09 16:16:00,
2013-07-09 12:21:00,82.9,66.5,29.99,South,172,0.0,15.9,58,0.00,,---,0.00,VWS V14.01,2013-07-09 16:21:00,
2013-07-09 12:26:00,83.0,65.9,29.99,South,172,0.0,15.9,56,0.00,,---,0.00,VWS V14.01,2013-07-09 16:26:00,
2013-07-09 12:31:00,81.4,65.0,29.99,North,359,0.2,15.9,58,0.00,,---,0.00,VWS V14.01,2013-07-09 16:31:00,
2013-07-09 12:36:00,82.8,66.6,29.99,NNW,335,6.8,15.9,58,0.00,,---,0.00,VWS V14.01,2013-07-09 16:36:00,
2013-07-09 12:41:00,81.4,65.5,29.99,WSW,239,0.0,15.9,58,0.00,,---,0.00,VWS V14.01,2013-07-09 16:41:00,
2013-07-09 12:46:00,82.8,66.5,29.99,North,359,0.0,15.9,58,0.00,,---,0.00,VWS V14.01,2013-07-09 16:46:00,
2013-07-09 12:51:00,82.9,66.9,29.99,North,359,0.0,15.9,58,0.00,,---,0.00,VWS V14.01,2013-07-09 16:51:00,
2013-07-09 12:56:00,82.0,64.2,29.98,North,359,0.0,15.9,55,0.00,,---,0.00,VWS V14.01,2013-07-09 16:56:00,
2013-07-09 13:01:00,82.8,66.2,29.99,NW,326,0.0,15.9,57,0.00,,---,0.00,VWS V14.01,2013-07-09 17:01:00,
2013-07-09 13:06:00,82.5,65.6,29.98,SW,229,0.0,15.9,57,0.00,,---,0.00,VWS V14.01,2013-07-09 17:06:00,
2013-07-09 13:11:00,81.6,65.7,29.98,SW,229,0.0,15.9,59,0.00,,---,0.00,VWS V14.01,2013-07-09 17:11:00,
2013-07-09 13:16:00,82.2,66.7,29.98,SW,229,0.0,15.9,60,0.00,,---,0.00,VWS V14.01,2013-07-09 17:16:00,
2013-07-09 13:21:00,83.1,67.6,29.98,SW,229,0.0,15.9,60,0.00,,---,0.00,VWS V14.01,2013-07-09 17:21:00,
2013-07-09 13:26:00,83.0,66.8,29.98,SW,229,0.0,15.9,58,0.00,,---,0.00,VWS V14.01,2013-07-09 17:26:00,
2013-07-09 13:31:00,83.4,67.7,29.97,SW,229,0.0,15.9,59,0.00,,---,0.00,VWS V14.01,2013-07-09 17:31:00,
2013-07-09 13:36:00,83.0,68.2,29.98,SW,229,0.0,15.9,61,0.00,,---,0.00,VWS V14.01,2013-07-09 17:36:00,
2013-07-09 13:41:00,82.9,67.5,29.98,SW,229,0.0,15.9,60,0.00,,---,0.00,VWS V14.01,2013-07-09 17:41:00,
2013-07-09 13:46:00,82.5,65.6,29.98,SW,229,0.0,15.9,57,0.00,,---,0.00,VWS V14.01,2013-07-09 17:46:00,
2013-07-09 13:51:00,82.7,66.0,29.98,SW,229,0.0,15.9,57,0.00,,---,0.00,VWS V14.01,2013-07-09 17:51:00,
2013-07-09 13:56:00,83.0,66.2,29.98,SW,229,0.0,15.9,57,0.00,,---,0.00,VWS V14.01,2013-07-09 17:56:00,
2013-07-09 14:01:00,82.9,66.4,29.97,SW,229,0.0,15.9,58,0.00,,---,0.00,VWS V14.01,2013-07-09 18:01:00,
2013-07-09 14:06:00,83.3,65.4,29.97,West,274,9.7,15.9,55,0.00,,---,0.00,VWS V14.01,2013-07-09 18:06:00,
2013-07-09 14:11:00,83.3,67.0,29.97,WNW,302,4.5,15.9,58,0.00,,---,0.00,VWS V14.01,2013-07-09 18:11:00,
2013-07-09 14:16:00,83.1,67.1,29.97,West,278,9.9,15.9,59,0.00,,---,0.00,VWS V14.01,2013-07-09 18:16:00,
2013-07-09 14:21:00,84.0,65.6,29.97,WNW,283,6.1,15.9,54,0.00,,---,0.00,VWS V14.01,2013-07-09 18:21:00,
2013-07-09 14:26:00,82.8,65.6,29.97,SW,233,4.0,15.9,56,0.00,,---,0.00,VWS V14.01,2013-07-09 18:26:00,
2013-07-09 14:31:00,82.5,64.7,29.97,SW,233,6.7,15.9,55,0.00,,---,0.00,VWS V14.01,2013-07-09 18:31:00,
2013-07-09 14:36:00,82.4,65.0,29.97,WNW,285,9.6,15.9,56,0.00,,---,0.00,VWS V14.01,2013-07-09 18:36:00,
2013-07-09 14:41:00,82.8,66.0,29.97,WNW,283,6.1,15.9,57,0.00,,---,0.00,VWS V14.01,2013-07-09 18:41:00,
2013-07-09 14:46:00,82.6,66.2,29.97,WNW,292,3.6,15.9,58,0.00,,---,0.00,VWS V14.01,2013-07-09 18:46:00,
2013-07-09 14:51:00,82.5,63.7,29.97,WNW,285,5.6,15.9,53,0.00,,---,0.00,VWS V14.01,2013-07-09 18:51:00,
2013-07-09 14:56:00,82.7,64.8,29.97,WSW,245,3.4,15.9,55,0.00,,---,0.00,VWS V14.01,2013-07-09 18:56:00,
2013-07-09 15:01:00,82.9,65.1,29.97,West,260,7.3,15.9,55,0.00,,---,0.00,VWS V14.01,2013-07-09 19:01:00,
2013-07-09 15:06:00,82.5,64.7,29.96,NW,305,2.9,15.9,55,0.00,,---,0.00,VWS V14.01,2013-07-09 19:06:00,
2013-07-09 15:11:00,82.2,64.2,29.96,SW,217,3.0,15.9,55,0.00,,---,0.00,VWS V14.01,2013-07-09 19:11:00,
2013-07-09 15:16:00,82.7,64.5,29.96,West,266,6.4,15.9,54,0.00,,---,0.00,VWS V14.01,2013-07-09 19:16:00,
2013-07-09 15:21:00,82.3,64.2,29.95,WNW,301,6.3,15.9,54,0.00,,---,0.00,VWS V14.01,2013-07-09 19:21:00,
2013-07-09 15:26:00,82.7,64.6,29.96,West,270,4.2,15.9,54,0.00,,---,0.00,VWS V14.01,2013-07-09 19:26:00,
2013-07-09 15:31:00,83.0,65.2,29.96,West,273,6.7,15.9,55,0.00,,---,0.00,VWS V14.01,2013-07-09 19:31:00,
2013-07-09 15:36:00,82.9,65.8,29.96,WNW,283,2.9,15.9,56,0.00,,---,0.00,VWS V14.01,2013-07-09 19:36:00,
2013-07-09 15:41:00,83.1,65.7,29.95,West,271,3.2,15.9,56,0.00,,---,0.00,VWS V14.01,2013-07-09 19:41:00,
2013-07-09 15:46:00,82.7,65.1,29.95,WNW,287,6.3,15.9,55,0.00,,---,0.00,VWS V14.01,2013-07-09 19:46:00,
2013-07-09 15:51:00,82.5,65.1,29.95,WSW,243,5.0,15.9,56,0.00,,---,0.00,VWS V14.01,2013-07-09 19:51:00,
2013-07-09 15:56:00,83.4,66.7,29.96,NNW,328,3.6,15.9,57,0.00,,---,0.00,VWS V14.01,2013-07-09 19:56:00,
2013-07-09 16:01:00,82.1,65.8,29.95,WNW,290,9.3,15.9,58,0.00,,---,0.00,VWS V14.01,2013-07-09 20:01:00,
2013-07-09 16:06:00,82.9,67.0,29.95,West,276,2.4,15.9,59,0.00,,---,0.00,VWS V14.01,2013-07-09 20:06:00,
2013-07-09 16:11:00,82.2,65.8,29.95,West,260,8.0,15.9,58,0.00,,---,0.00,VWS V14.01,2013-07-09 20:11:00,
2013-07-09 16:16:00,81.4,64.9,29.95,WSW,249,5.7,15.9,57,0.00,,---,0.00,VWS V14.01,2013-07-09 20:16:00,
2013-07-09 16:21:00,81.6,65.6,29.95,West,262,5.6,15.9,58,0.00,,---,0.00,VWS V14.01,2013-07-09 20:21:00,
2013-07-09 16:26:00,81.9,65.2,29.95,WNW,294,7.0,15.9,57,0.00,,---,0.00,VWS V14.01,2013-07-09 20:26:00,
2013-07-09 16:31:00,82.3,65.1,29.95,West,274,5.2,15.9,56,0.00,,---,0.00,VWS V14.01,2013-07-09 20:31:00,
2013-07-09 16:36:00,81.6,64.3,29.95,WNW,290,2.4,15.9,56,0.00,,---,0.00,VWS V14.01,2013-07-09 20:36:00,
2013-07-09 16:41:00,82.2,65.6,29.95,WSW,257,4.0,15.9,57,0.00,,---,0.00,VWS V14.01,2013-07-09 20:41:00,
2013-07-09 16:46:00,82.7,66.0,29.95,WNW,300,2.5,15.9,57,0.00,,---,0.00,VWS V14.01,2013-07-09 20:46:00,
2013-07-09 16:51:00,82.4,65.8,29.95,West,274,2.0,15.9,57,0.00,,---,0.00,VWS V14.01,2013-07-09 20:51:00,
2013-07-09 16:56:00,82.6,65.8,29.95,WNW,302,2.5,15.9,57,0.00,,---,0.00,VWS V14.01,2013-07-09 20:56:00,
2013-07-09 17:01:00,82.5,65.3,29.95,WSW,243,5.2,15.9,56,0.00,,---,0.00,VWS V14.01,2013-07-09 21:01:00,
2013-07-09 17:06:00,81.7,64.7,29.94,West,273,4.1,15.9,56,0.00,,---,0.00,VWS V14.01,2013-07-09 21:06:00,
2013-07-09 17:11:00,82.0,65.0,29.94,West,266,2.1,15.9,56,0.00,,---,0.00,VWS V14.01,2013-07-09 21:11:00,
2013-07-09 17:16:00,81.9,65.2,29.94,WSW,242,1.2,15.9,57,0.00,,---,0.00,VWS V14.01,2013-07-09 21:16:00,
2013-07-09 17:20:00,82.4,65.7,29.94,WSW,245,2.1,15.9,57,0.00,,---,0.00,VWS V14.01,2013-07-09 21:20:00,
2013-07-09 17:25:00,82.7,66.1,29.94,SW,229,1.5,15.9,57,0.00,,---,0.00,VWS V14.01,2013-07-09 21:25:00,
2013-07-09 17:30:00,82.4,65.9,29.94,South,169,2.7,15.9,58,0.00,,---,0.00,VWS V14.01,2013-07-09 21:30:00,
2013-07-09 17:35:00,82.9,66.7,29.93,SE,146,1.8,15.9,58,0.00,,---,0.00,VWS V14.01,2013-07-09 21:35:00,
2013-07-09 17:40:00,82.5,66.7,29.93,South,188,2.5,15.9,59,0.00,,---,0.00,VWS V14.01,2013-07-09 21:40:00,
2013-07-09 17:45:00,83.3,67.7,29.93,WNW,287,1.1,15.9,60,0.00,,---,0.00,VWS V14.01,2013-07-09 21:45:00,
2013-07-09 17:50:00,83.1,67.2,29.93,SW,228,1.6,15.9,59,0.00,,---,0.00,VWS V14.01,2013-07-09 21:50:00,
2013-07-09 17:55:00,81.9,66.3,29.93,South,187,3.4,15.9,59,0.00,,---,0.00,VWS V14.01,2013-07-09 21:55:00,
2013-07-09 18:00:00,81.8,66.3,29.93,SSE,155,1.6,15.9,60,0.00,,---,0.00,VWS V14.01,2013-07-09 22:00:00,
2013-07-09 18:05:00,82.7,67.2,29.93,SW,218,3.2,15.9,60,0.00,,---,0.00,VWS V14.01,2013-07-09 22:05:00,
2013-07-09 18:10:00,81.8,66.5,29.93,SW,222,2.5,7.8,60,0.00,,---,0.00,VWS V14.01,2013-07-09 22:10:00,
2013-07-09 18:15:00,82.3,67.3,29.93,SW,215,2.0,3.7,60,0.00,,---,0.00,VWS V14.01,2013-07-09 22:15:00,
2013-07-09 18:20:00,82.0,67.0,29.93,West,281,1.1,4.3,60,0.00,,---,0.00,VWS V14.01,2013-07-09 22:20:00,
2013-07-09 18:25:00,81.9,67.1,29.92,SW,224,2.2,4.5,61,0.00,,---,0.00,VWS V14.01,2013-07-09 22:25:00,
2013-07-09 18:30:00,82.1,67.2,29.92,SW,217,3.7,3.7,61,0.00,,---,0.00,VWS V14.01,2013-07-09 22:30:00,
2013-07-09 18:35:00,81.8,66.9,29.92,West,260,7.6,7.8,61,0.00,,---,0.00,VWS V14.01,2013-07-09 22:35:00,
2013-07-09 18:40:00,81.8,67.3,29.92,South,183,3.2,4.5,62,0.00,,---,0.00,VWS V14.01,2013-07-09 22:40:00,
2013-07-09 18:45:00,82.8,68.4,29.92,SE,124,3.9,5.3,62,0.00,,---,0.00,VWS V14.01,2013-07-09 22:45:00,
2013-07-09 18:50:00,81.8,67.6,29.92,West,276,2.7,4.3,62,0.00,,---,0.00,VWS V14.01,2013-07-09 22:50:00,
2013-07-09 18:55:00,81.3,67.3,29.92,West,278,1.0,2.9,62,0.00,,---,0.00,VWS V14.01,2013-07-09 22:55:00,
2013-07-09 19:00:00,81.1,67.1,29.92,West,278,4.8,4.8,62,0.00,,---,0.00,VWS V14.01,2013-07-09 23:00:00,
2013-07-09 19:05:00,82.1,68.2,29.92,WNW,284,4.4,5.7,63,0.00,,---,0.00,VWS V14.01,2013-07-09 23:05:00,
2013-07-09 19:10:00,81.7,67.9,29.93,West,273,3.7,4.7,63,0.00,,---,0.00,VWS V14.01,2013-07-09 23:10:00,
2013-07-09 19:15:00,81.0,67.4,29.93,WSW,240,3.5,3.6,63,0.00,,---,0.00,VWS V14.01,2013-07-09 23:15:00,
2013-07-09 19:20:00,82.1,68.6,29.93,SSW,205,4.5,5.2,64,0.00,,---,0.00,VWS V14.01,2013-07-09 23:20:00,
2013-07-09 19:25:00,82.2,68.6,29.93,SW,235,3.2,3.2,64,0.00,,---,0.00,VWS V14.01,2013-07-09 23:25:00,
2013-07-09 19:30:00,80.8,67.2,29.93,WSW,255,3.0,4.8,63,0.00,,---,0.00,VWS V14.01,2013-07-09 23:30:00,
2013-07-09 19:35:00,80.9,67.2,29.93,West,267,2.8,5.9,63,0.00,,---,0.00,VWS V14.01,2013-07-09 23:35:00,
2013-07-09 19:40:00,80.9,67.3,29.94,West,274,0.8,2.6,63,0.00,,---,0.00,VWS V14.01,2013-07-09 23:40:00,
2013-07-09 19:45:00,81.2,67.6,29.93,NW,323,4.5,4.5,63,0.00,,---,0.00,VWS V14.01,2013-07-09 23:45:00,
2013-07-09 19:50:00,81.0,67.6,29.93,SW,233,1.3,2.4,64,51.38,,---,0.00,VWS V14.01,2013-07-09 23:50:00,
2013-07-09 19:55:00,79.9,66.7,29.93,SW,235,3.6,5.0,64,0.00,,---,0.00,VWS V14.01,2013-07-09 23:55:00,
2013-07-09 20:00:00,80.5,67.3,29.93,WSW,245,2.9,3.5,64,0.00,,---,0.00,VWS V14.01,2013-07-10 00:00:00,
2013-07-09 20:05:00,80.5,67.4,29.93,SW,236,1.6,3.2,64,0.00,,---,0.00,VWS V14.01,2013-07-10 00:05:00,
2013-07-09 20:10:00,80.1,67.1,29.93,SW,228,2.4,2.4,64,0.00,,---,0.00,VWS V14.01,2013-07-10 00:10:00,
2013-07-09 20:15:00,80.1,67.2,29.93,South,174,1.4,2.4,65,51.38,,---,0.00,VWS V14.01,2013-07-10 00:15:00,
2013-07-09 20:20:00,80.2,67.4,29.93,West,278,0.4,1.4,65,0.00,,---,0.00,VWS V14.01,2013-07-10 00:20:00,
2013-07-09 20:25:00,80.5,67.9,29.93,SSW,211,3.7,4.7,66,0.00,,---,0.00,VWS V14.01,2013-07-10 00:25:00,
2013-07-09 20:30:00,80.2,67.9,29.93,WSW,248,6.0,7.3,66,0.00,,---,0.00,VWS V14.01,2013-07-10 00:30:00,
2013-07-09 20:35:00,80.1,68.0,29.93,WSW,238,1.4,4.7,67,0.00,,---,0.00,VWS V14.01,2013-07-10 00:35:00,
2013-07-09 20:40:00,79.5,67.6,29.93,WSW,252,2.7,4.2,67,0.00,,---,0.00,VWS V14.01,2013-07-10 00:40:00,
2013-07-09 20:45:00,80.4,68.6,29.94,West,278,0.0,0.0,67,0.00,,---,0.00,VWS V14.01,2013-07-10 00:45:00,
2013-07-09 20:50:00,79.4,67.8,29.94,SW,221,1.1,1.1,68,51.38,,---,0.00,VWS V14.01,2013-07-10 00:50:00,
2013-07-09 20:55:00,79.2,67.7,29.94,WSW,250,1.7,2.5,68,0.00,,---,0.00,VWS V14.01,2013-07-10 00:55:00,
2013-07-09 21:00:00,79.5,68.0,29.94,West,281,1.1,3.8,68,0.00,,---,0.00,VWS V14.01,2013-07-10 01:00:00,
2013-07-09 21:05:00,78.8,67.4,29.95,South,186,3.7,4.8,68,0.00,,---,0.00,VWS V14.01,2013-07-10 01:05:00,
2013-07-09 21:10:00,78.7,67.2,29.94,WSW,242,4.8,6.7,68,0.00,,---,0.00,VWS V14.01,2013-07-10 01:10:00,
2013-07-09 21:15:00,79.0,67.4,29.95,WNW,290,3.9,6.3,68,0.00,,---,0.00,VWS V14.01,2013-07-10 01:15:00,
2013-07-09 21:20:00,79.3,67.8,29.95,West,259,3.2,3.2,68,0.00,,---,0.00,VWS V14.01,2013-07-10 01:20:00,
2013-07-09 21:25:00,78.7,67.2,29.95,WSW,250,2.4,3.2,68,0.00,,---,0.00,VWS V14.01,2013-07-10 01:25:00,
2013-07-09 21:30:00,78.5,67.0,29.96,WSW,239,1.9,3.2,68,0.00,,---,0.00,VWS V14.01,2013-07-10 01:30:00,
2013-07-09 21:32:00,77.3,66.9,29.96,WNW,288,2.1,2.7,70,0.00,,---,0.00,VWS V14.01,2013-07-10 01:32:00,
2013-07-09 21:35:00,77.9,66.4,29.96,WSW,246,3.0,4.3,68,0.00,,---,0.00,VWS V14.01,2013-07-10 01:35:00,
2013-07-09 21:40:00,78.2,66.8,29.96,NW,316,0.8,2.2,68,0.00,,---,0.00,VWS V14.01,2013-07-10 01:40:00,
2013-07-09 21:45:00,77.7,66.3,29.96,WNW,301,3.8,3.8,68,0.00,,---,0.00,VWS V14.01,2013-07-10 01:45:00,
2013-07-09 21:50:00,77.7,66.5,29.96,NW,326,4.6,5.5,68,51.38,,---,0.00,VWS V14.01,2013-07-10 01:50:00,
2013-07-09 21:55:00,78.4,67.3,29.96,WNW,300,3.6,3.8,69,0.00,,---,0.00,VWS V14.01,2013-07-10 01:55:00,
2013-07-09 22:00:00,77.3,66.4,29.97,West,278,4.7,4.7,69,0.00,,---,0.00,VWS V14.01,2013-07-10 02:00:00,
2013-07-09 22:05:00,78.4,67.6,29.96,WSW,240,2.2,2.9,69,0.00,,---,0.00,VWS V14.01,2013-07-10 02:05:00,
2013-07-09 22:10:00,77.3,66.7,29.97,WSW,240,0.2,0.5,70,0.00,,---,0.00,VWS V14.01,2013-07-10 02:10:00,
2013-07-09 22:15:00,77.0,66.5,29.96,West,266,2.4,2.4,70,0.00,,---,0.00,VWS V14.01,2013-07-10 02:15:00,
2013-07-09 22:20:00,76.8,66.4,29.96,WNW,298,2.4,2.4,70,0.00,,---,0.00,VWS V14.01,2013-07-10 02:20:00,
2013-07-09 22:25:00,76.8,66.5,29.96,WNW,291,2.1,2.1,70,0.00,,---,0.00,VWS V14.01,2013-07-10 02:25:00,
2013-07-09 22:30:00,78.0,67.8,29.96,WSW,257,1.8,1.8,71,0.00,,---,0.00,VWS V14.01,2013-07-10 02:30:00,
2013-07-09 22:35:00,77.4,67.4,29.96,WSW,252,3.2,3.2,71,0.00,,---,0.00,VWS V14.01,2013-07-10 02:35:00,
2013-07-09 22:40:00,77.9,68.0,29.96,WSW,257,3.9,4.0,72,0.00,,---,0.00,VWS V14.01,2013-07-10 02:40:00,
2013-07-09 22:45:00,76.8,67.0,29.96,SW,228,3.4,3.7,72,0.00,,---,0.00,VWS V14.01,2013-07-10 02:45:00,
2013-07-09 22:50:00,76.8,67.0,29.96,SW,236,2.1,2.4,72,0.00,,---,0.00,VWS V14.01,2013-07-10 02:50:00,
2013-07-09 22:55:00,76.7,67.0,29.96,West,260,4.7,4.7,72,0.00,,---,0.00,VWS V14.01,2013-07-10 02:55:00,
2013-07-09 23:00:00,76.6,66.9,29.96,SW,224,2.9,2.9,72,0.00,,---,0.00,VWS V14.01,2013-07-10 03:00:00,
2013-07-09 23:05:00,76.3,66.7,29.96,SSW,194,1.1,1.8,72,0.00,,---,0.00,VWS V14.01,2013-07-10 03:05:00,
2013-07-09 23:10:00,76.3,66.8,29.96,SSW,205,1.4,1.5,72,0.00,,---,0.00,VWS V14.01,2013-07-10 03:10:00,
2013-07-09 23:15:00,75.7,66.3,29.96,SW,217,1.1,1.2,73,0.00,,---,0.00,VWS V14.01,2013-07-10 03:15:00,
2013-07-09 23:20:00,76.2,66.8,29.96,SSW,201,1.5,1.5,73,0.00,,---,0.00,VWS V14.01,2013-07-10 03:20:00,
2013-07-09 23:25:00,76.4,67.1,29.96,SE,141,1.2,1.2,73,0.00,,---,0.00,VWS V14.01,2013-07-10 03:25:00,
2013-07-09 23:30:00,75.7,66.6,29.96,SSE,148,2.1,2.2,73,0.00,,---,0.00,VWS V14.01,2013-07-10 03:30:00,
2013-07-09 23:35:00,76.3,67.2,29.96,SSE,152,1.6,1.6,74,0.00,,---,0.00,VWS V14.01,2013-07-10 03:35:00,
2013-07-09 23:40:00,76.6,67.7,29.96,SE,139,0.4,0.4,74,0.00,,---,0.00,VWS V14.01,2013-07-10 03:40:00,
2013-07-09 23:45:00,75.2,66.4,29.96,SE,128,0.0,0.0,74,0.00,,---,0.00,VWS V14.01,2013-07-10 03:45:00,
2013-07-09 23:50:00,75.7,67.1,29.96,SSE,155,1.9,2.4,75,0.00,,---,0.00,VWS V14.01,2013-07-10 03:50:00,
2013-07-09 23:55:00,76.0,67.6,29.95,SE,139,0.2,2.4,75,0.00,,---,0.00,VWS V14.01,2013-07-10 03:55:00,